23. Mai 2022

Uhrzeit Code Wetter Temp. Sichtweite Wolken Wind METAR/SPECI
20:00
V
22 °C 10 km+ 10.000 ft 230°   230° 15 kt METAR LFST 231800Z AUTO 23015KT 9999 FEW049/// OVC100/// //////CB 22/13 Q1003 TEMPO 23016G28KT
19:30
V
23 °C 10 km+ 5.800 ft 240°   240° 22 kt METAR LFST 231730Z AUTO 24022KT 9999 BKN058 BKN074 BKN110 23/11 Q1003 TEMPO 23016G28KT FEW040CB
19:00
V
24 °C 10 km+ - 220°   220° 16 kt METAR LFST 231700Z AUTO 22016KT CAVOK 24/11 Q1002 TEMPO 24018G35KT 2500 TSRA SCT040CB
18:30
V
25 °C 10 km+ - 220°   220° 17 kt METAR LFST 231630Z AUTO 22017KT CAVOK 25/11 Q1002 TEMPO 24018G35KT 2500 TSRA SCT040CB
18:00
V
25 °C 10 km+ - 230°   230° 16 27 kt METAR LFST 231600Z AUTO 23016G27KT CAVOK 25/11 Q1002 TEMPO 2500 TSRA SCT040CB
17:30
V
25 °C 10 km+ - 230°   230° 19 kt METAR LFST 231530Z AUTO 23019KT CAVOK 25/11 Q1002 TEMPO 24018G35KT 2500 TSRA SCT040CB
17:00
V
27 °C 10 km+ - 220°   220° 22 kt METAR LFST 231500Z AUTO 22022KT CAVOK 27/12 Q1001 TEMPO 24018G35KT 2500 TSRA SCT040CB
16:30
V
27 °C 10 km+ - 190°   190° 11 kt METAR LFST 231430Z AUTO 19011KT 140V250 CAVOK 27/14 Q1002 TEMPO 24018G35KT 2500 TSRA SCT040CB
16:00
V
27 °C 10 km+ - 220°   220° 21 kt METAR LFST 231400Z AUTO 22021KT CAVOK 27/13 Q1002 TEMPO 24018G35KT 2500 TSRA SCT040CB
15:30
V
25 °C 10 km+ - 180°   180° 10 kt METAR LFST 231330Z AUTO 18010KT 150V220 CAVOK 25/18 Q1002 TEMPO 24018G35KT 2500 TSRA SCT040CB
15:00
V
24 °C 10 km+ - 170°   170° 7 kt METAR LFST 231300Z AUTO 17007KT 110V200 CAVOK 24/19 Q1003 TEMPO 24018G35KT 2500 TSRA SCT040CB
14:30
V
22 °C 10 km+ - 180°   180° 8 kt METAR LFST 231230Z AUTO 18008KT 120V220 9999 FEW035 22/18 Q1003 TEMPO 24018G35KT 2500 TSRA SCT040CB
14:00
V
20 °C 10 km+ 11.000 ft 180°   180° 8 kt METAR LFST 231200Z AUTO 18008KT 140V210 9999 FEW030 SCT094 BKN110 20/16 Q1004 TEMPO 24018G35KT 2500 TSRA SCT040CB
13:30
V
19 °C 10 km+ - 190°   190° 4 kt METAR LFST 231130Z AUTO 19004KT CAVOK 19/16 Q1004 TEMPO 20020G40KT 1200 TSRAGR SCT060CB
13:00
V
19 °C 10 km+ - 150°   150° 4 kt METAR LFST 231100Z AUTO 15004KT 060V190 9999 ///TCU 19/16 Q1004 TEMPO 20020G40KT 1200 TSRAGR SCT060CB
12:30
V
18 °C 10 km+ 10.000 ft 170°   170° 10 kt METAR LFST 231030Z AUTO 17010KT 130V190 9999 FEW050/// BKN100/// BKN120/// ///TCU 18/15 Q1005 TEMPO 20020G40KT 1200 TSRAGR SCT060CB
12:00
M
18 °C 6 km 7.200 ft 120°   120° 8 kt METAR LFST 231000Z AUTO 12008KT 080V170 6000 -TSRA FEW048/// BKN072/// OVC094/// ///CB 18/15 Q1004 TEMPO 20018G35KT 2500 TSRA
11:30
V
20 °C 10 km+ - 210°   210° 5 kt METAR LFST 230930Z AUTO 21005KT 110V250 9999 ///CB 20/14 Q1006 TEMPO 20018G35KT 2500 TSRA
11:00
V
20 °C 10 km+ 14.000 ft 130°   130° 5 kt METAR LFST 230900Z AUTO 13005KT 080V180 9999 FEW039 BKN140 20/14 Q1004 TEMPO 20018G35KT 2500 TSRA SCT060CB
10:30
V
20 °C 10 km+ - 130°   130° 4 kt METAR LFST 230830Z AUTO 13004KT 100V160 CAVOK 20/14 Q1004 TEMPO 20018G35KT 2500 TSRA SCT060CB
10:00
V
19 °C 10 km+ - 190°   190° 5 kt METAR LFST 230800Z AUTO 19005KT 160V220 9999 //////TCU 19/14 Q1005 TEMPO -TSRA SCT060CB
09:30
V
19 °C 10 km+ - 170°   170° 4 kt METAR LFST 230730Z AUTO 17004KT 130V200 CAVOK 19/14 Q1005 TEMPO -TSRA SCT060CB
09:00
V
18 °C 10 km+ 15.000 ft Var   Var 1 kt METAR LFST 230700Z AUTO VRB01KT 9999 FEW031 BKN150 18/13 Q1005 TEMPO -TSRA SCT060CB
08:30
V
17 °C 10 km+ 12.000 ft 240°   240° 6 kt METAR LFST 230630Z AUTO 24006KT 9999 FEW043/// SCT096/// BKN120/// ///TCU 17/13 Q1006 TEMPO -TSRA SCT060CB
08:00
V
16 °C 10 km+ - 260°   260° 7 kt METAR LFST 230600Z AUTO 26007KT CAVOK 16/13 Q1006 TEMPO -TSRA SCT060CB
07:30
V
15 °C 10 km+ - 250°   250° 5 kt METAR LFST 230530Z AUTO 25005KT 220V280 CAVOK 15/13 Q1006 TEMPO SHRA SCT070TCU
07:00
V
15 °C 10 km+ 13.000 ft 140°   140° 4 kt METAR LFST 230500Z AUTO 14004KT 100V180 9999 FEW054/// BKN130/// BKN190/// //////TCU 15/13 Q1006 TEMPO SHRA FEW080CB
06:30
V
15 °C 10 km+ - 110°   110° 6 kt METAR LFST 230430Z AUTO 11006KT 060V140 9999 ///CB 15/13 Q1007 TEMPO SHRA BECMG NSC
06:00
V
15 °C 10 km+ 11.000 ft 090°   090° 6 kt METAR LFST 230400Z AUTO 09006KT 060V120 9999 -RA FEW060/// BKN110/// BKN130/// //////TCU 15/12 Q1007 TEMPO SHRA FEW080CB
05:30
V
15 °C 10 km+ 10.000 ft Var   Var 2 kt METAR LFST 230330Z AUTO VRB02KT 9999 -RA VCTS FEW045/// SCT058/// BKN100/// //////CB 15/12 Q1008 TEMPO SHRA
05:00
V
16 °C 10 km+ - 290°   290° 8 kt METAR LFST 230300Z AUTO 29008KT 250V330 9999 -RA //////CB 16/10 Q1008 TEMPO SHRA
04:30
V
15 °C 10 km+ - 240°   240° 6 kt METAR LFST 230230Z AUTO 24006KT 9999 ///CB 15/10 Q1007 TEMPO SHRA
04:00
V
14 °C 10 km+ - 020°   020° 1 kt METAR LFST 230200Z AUTO 02001KT CAVOK 14/10 Q1006 TEMPO SHRA FEW080CB
03:30
V
14 °C 10 km+ - 330°   330° 3 kt METAR LFST 230130Z AUTO 33003KT CAVOK 14/09 Q1007 TEMPO SHRA FEW080CB
03:00
V
15 °C 10 km+ - 230°   230° 2 kt METAR LFST 230100Z AUTO 23002KT CAVOK 15/09 Q1007 TEMPO SHRA FEW080CB
02:30
V
15 °C 10 km+ - 020°   020° 1 kt METAR LFST 230030Z AUTO 02001KT CAVOK 15/09 Q1007 TEMPO SHRA FEW080CB
02:00
V
15 °C 10 km+ - 260°   260° 3 kt METAR LFST 230000Z AUTO 26003KT 220V300 CAVOK 15/09 Q1008 NOSIG
01:30
V
16 °C 10 km+ - 260°   260° 4 kt METAR LFST 222330Z AUTO 26004KT CAVOK 16/10 Q1008 NOSIG
01:00
V
16 °C 10 km+ - 300°   300° 3 kt METAR LFST 222300Z AUTO 30003KT CAVOK 16/09 Q1008 NOSIG
00:30
V
16 °C 10 km+ - 330°   330° 4 kt METAR LFST 222230Z AUTO 33004KT CAVOK 16/09 Q1009 NOSIG
00:00
V
17 °C 10 km+ - 330°   330° 4 kt METAR LFST 222200Z AUTO 33004KT CAVOK 17/09 Q1009 NOSIG

22. Mai 2022

Uhrzeit Code Wetter Temp. Sichtweite Wolken Wind METAR/SPECI
23:30
V
17 °C 10 km+ - 340°   340° 5 kt METAR LFST 222130Z AUTO 34005KT CAVOK 17/09 Q1009 NOSIG
23:00
V
17 °C 10 km+ - 320°   320° 4 kt METAR LFST 222100Z AUTO 32004KT CAVOK 17/09 Q1010 NOSIG
22:30
V
18 °C 10 km+ - 320°   320° 5 kt METAR LFST 222030Z AUTO 32005KT CAVOK 18/09 Q1010 NOSIG
22:00
V
18 °C 10 km+ - 310°   310° 6 kt METAR LFST 222000Z AUTO 31006KT CAVOK 18/09 Q1010 TEMPO FEW080CB
21:30
V
19 °C 10 km+ - 330°   330° 4 kt METAR LFST 221930Z AUTO 33004KT CAVOK 19/08 Q1010 TEMPO FEW080CB
21:00
V
21 °C 10 km+ - 360°   360° 3 kt METAR LFST 221900Z AUTO 36003KT CAVOK 21/08 Q1010 TEMPO FEW080CB
20:30
V
23 °C 10 km+ - 020°   020° 5 kt METAR LFST 221830Z AUTO 02005KT CAVOK 23/08 Q1010 TEMPO FEW080CB
20:00
V
23 °C 10 km+ 15.000 ft 030°   030° 5 kt METAR LFST 221800Z AUTO 03005KT 9999 FEW007 SCT130 BKN150 23/08 Q1010 TEMPO FEW080CB
19:30
V
23 °C 10 km+ - 050°   050° 9 kt METAR LFST 221730Z AUTO 05009KT CAVOK 23/07 Q1010 TEMPO FEW080CB
19:00
V
24 °C 10 km+ - 050°   050° 9 kt METAR LFST 221700Z AUTO 05009KT CAVOK 24/07 Q1010 TEMPO FEW080CB
18:30
V
24 °C 10 km+ - 050°   050° 8 kt METAR LFST 221630Z AUTO 05008KT CAVOK 24/08 Q1011 TEMPO FEW080CB
18:00
V
24 °C 10 km+ - 060°   060° 9 kt METAR LFST 221600Z AUTO 06009KT CAVOK 24/08 Q1012 TEMPO FEW080CB
17:30
V
24 °C 10 km+ - 060°   060° 6 kt METAR LFST 221530Z AUTO 06006KT 9999 ///TCU 24/05 Q1012 TEMPO FEW080CB
17:00
V
24 °C 10 km+ - 040°   040° 9 kt METAR LFST 221500Z AUTO 04009KT 9999 //////TCU 24/06 Q1012 TEMPO FEW080CB
16:30
V
25 °C 10 km+ - 030°   030° 7 kt METAR LFST 221430Z AUTO 03007KT CAVOK 25/06 Q1013 TEMPO FEW080CB
16:00
V
25 °C 10 km+ - 010°   010° 6 kt METAR LFST 221400Z AUTO 01006KT 330V040 CAVOK 25/07 Q1013 TEMPO FEW080CB
15:30
V
25 °C 10 km+ - 030°   030° 5 kt METAR LFST 221330Z AUTO 03005KT 300V070 CAVOK 25/07 Q1013 TEMPO FEW080CB
15:00
V
25 °C 10 km+ - 020°   020° 5 kt METAR LFST 221300Z AUTO 02005KT 330V060 CAVOK 25/08 Q1013 NOSIG
14:30
V
25 °C 10 km+ - Var   Var 5 kt METAR LFST 221230Z AUTO VRB05KT CAVOK 25/09 Q1013 NOSIG
14:00
V
26 °C 10 km+ - 040°   040° 4 kt METAR LFST 221200Z AUTO 04004KT 350V120 CAVOK 26/09 Q1013 NOSIG
13:30
V
25 °C 10 km+ - Var   Var 3 kt METAR LFST 221130Z AUTO VRB03KT CAVOK 25/09 Q1014 NOSIG
13:00
V
24 °C 10 km+ - Var   Var 3 kt METAR LFST 221100Z AUTO VRB03KT CAVOK 24/08 Q1014 NOSIG
12:30
V
24 °C 10 km+ - 010°   010° 3 kt METAR LFST 221030Z AUTO 01003KT 280V060 CAVOK 24/09 Q1015 NOSIG
12:00
V
23 °C 10 km+ - 040°   040° 5 kt METAR LFST 221000Z AUTO 04005KT 360V090 CAVOK 23/08 Q1015 NOSIG
11:30
V
23 °C 10 km+ - Var   Var 3 kt METAR LFST 220930Z AUTO VRB03KT CAVOK 23/09 Q1016 NOSIG
11:00
V
22 °C 10 km+ - 030°   030° 5 kt METAR LFST 220900Z AUTO 03005KT 350V070 CAVOK 22/08 Q1016 NOSIG
10:30
V
22 °C 10 km+ - 020°   020° 4 kt METAR LFST 220830Z AUTO 02004KT 340V050 CAVOK 22/09 Q1016 NOSIG
10:00
V
21 °C 10 km+ - 040°   040° 5 kt METAR LFST 220800Z AUTO 04005KT 350V080 CAVOK 21/10 Q1016 NOSIG
09:30
V
21 °C 10 km+ - 030°   030° 3 kt METAR LFST 220730Z AUTO 03003KT 350V090 CAVOK 21/11 Q1017 NOSIG
09:00
V
20 °C 10 km+ - Var   Var 3 kt METAR LFST 220700Z AUTO VRB03KT CAVOK 20/10 Q1017 NOSIG
08:30
V
18 °C 10 km+ - Var   Var 2 kt METAR LFST 220630Z AUTO VRB02KT CAVOK 18/10 Q1017 NOSIG
08:00
V
16 °C 10 km+ - Var   000° 0 kt METAR LFST 220600Z AUTO 00000KT CAVOK 16/10 Q1017 NOSIG
07:30
V
15 °C 10 km+ - 200°   200° 2 kt METAR LFST 220530Z AUTO 20002KT CAVOK 15/10 Q1017 NOSIG
07:00
V
14 °C 10 km+ - 240°   240° 1 kt METAR LFST 220500Z AUTO 24001KT CAVOK 14/10 Q1017 NOSIG
06:30
V
12 °C 10 km+ - 240°   240° 1 kt METAR LFST 220430Z AUTO 24001KT CAVOK 12/10 Q1017 NOSIG
06:00
V
11 °C 10 km+ - 210°   210° 1 kt METAR LFST 220400Z AUTO 21001KT CAVOK 11/09 Q1017 NOSIG
05:30
V
11 °C 10 km+ - Var   000° 0 kt METAR LFST 220330Z AUTO 00000KT CAVOK 11/09 Q1018 NOSIG
05:00
V
11 °C 10 km+ - Var   000° 0 kt METAR LFST 220300Z AUTO 00000KT CAVOK 11/09 Q1018 NOSIG
04:30
V
12 °C 10 km+ - 320°   320° 1 kt METAR LFST 220230Z AUTO 32001KT CAVOK 12/09 Q1018 NOSIG
04:00
V
12 °C 10 km+ - 140°   140° 2 kt METAR LFST 220200Z AUTO 14002KT CAVOK 12/09 Q1018 NOSIG
03:30
V
11 °C 10 km+ - Var   000° 0 kt METAR LFST 220130Z AUTO 00000KT CAVOK 11/09 Q1018 NOSIG
03:00
V
12 °C 10 km+ - 330°   330° 2 kt METAR LFST 220100Z AUTO 33002KT CAVOK 12/09 Q1018 NOSIG
02:30
V
13 °C 10 km+ - 280°   280° 2 kt METAR LFST 220030Z AUTO 28002KT CAVOK 13/09 Q1018 NOSIG
02:00
V
13 °C 10 km+ - 360°   360° 1 kt METAR LFST 220000Z AUTO 36001KT CAVOK 13/09 Q1019 NOSIG
01:30
V
14 °C 10 km+ - 260°   260° 2 kt METAR LFST 212330Z AUTO 26002KT CAVOK 14/09 Q1019 NOSIG
01:00
V
13 °C 10 km+ - Var   Var 1 kt METAR LFST 212300Z AUTO VRB01KT CAVOK 13/08 Q1019 NOSIG
00:30
V
14 °C 10 km+ - 300°   300° 2 kt METAR LFST 212230Z AUTO 30002KT CAVOK 14/09 Q1019 NOSIG
00:00
V
15 °C 10 km+ - Var   Var 2 kt METAR LFST 212200Z AUTO VRB02KT CAVOK 15/09 Q1020 NOSIG

21. Mai 2022

Uhrzeit Code Wetter Temp. Sichtweite Wolken Wind METAR/SPECI
23:30
V
16 °C 10 km+ - 350°   350° 2 kt METAR LFST 212130Z AUTO 35002KT CAVOK 16/09 Q1020 NOSIG
23:00
V
17 °C 10 km+ - 010°   010° 2 kt METAR LFST 212100Z AUTO 01002KT CAVOK 17/09 Q1020 NOSIG
22:30
V
18 °C 10 km+ - 050°   050° 3 kt METAR LFST 212030Z AUTO 05003KT CAVOK 18/09 Q1020 NOSIG
22:00
V
19 °C 10 km+ - 040°   040° 4 kt METAR LFST 212000Z AUTO 04004KT CAVOK 19/09 Q1020 NOSIG
21:30
V
19 °C 10 km+ - 040°   040° 6 kt METAR LFST 211930Z AUTO 04006KT CAVOK 19/08 Q1019 NOSIG
21:00
V
20 °C 10 km+ - 040°   040° 8 kt METAR LFST 211900Z AUTO 04008KT CAVOK 20/09 Q1019 NOSIG
20:30
V
22 °C 10 km+ - 030°   030° 6 kt METAR LFST 211830Z AUTO 03006KT CAVOK 22/09 Q1019 NOSIG
20:00
V
22 °C 10 km+ - 010°   010° 10 kt METAR LFST 211800Z AUTO 01010KT CAVOK 22/08 Q1019 NOSIG
19:30
V
23 °C 10 km+ - 360°   360° 9 kt METAR LFST 211730Z AUTO 36009KT CAVOK 23/09 Q1019 NOSIG
19:00
V
24 °C 10 km+ - 360°   360° 10 kt METAR LFST 211700Z AUTO 36010KT CAVOK 24/08 Q1020 NOSIG
18:30
V
24 °C 10 km+ - 360°   360° 8 kt METAR LFST 211630Z AUTO 36008KT CAVOK 24/08 Q1020 NOSIG
18:00
V
25 °C 10 km+ - 020°   020° 8 kt METAR LFST 211600Z AUTO 02008KT CAVOK 25/08 Q1020 NOSIG
17:30
V
24 °C 10 km+ - 050°   050° 9 kt METAR LFST 211530Z AUTO 05009KT 020V090 CAVOK 24/08 Q1021 NOSIG
17:00
V
25 °C 10 km+ - 020°   020° 7 kt METAR LFST 211500Z AUTO 02007KT 310V070 CAVOK 25/08 Q1021 NOSIG
Ältere Daten

Laden Sie unsere App herunter

Einfacher Zugriff auf das gesamte Flugwetter auf Ihrem Mobiltelefon und Tablet.
Mit vielen Funktionen, die auf der Website nicht verfügbar sind, wie Offline-Unterstützung und eine persönliche Flughafenliste.

Wir und Dritte verfolgen dein Internetverhalten auf unserer Website mit Cookies. Wenn du fortfährst, gehen wir davon aus, dass du mit unserer Cookie-Richtlinie einverstanden bist. Mehr erfahren